sensor_id;sensor_type;location;lat;lon;timestamp;P1;durP1;ratioP1;P2;durP2;ratioP2
71484;SDS011;59300;52.074;4.758;2022-11-25T00:02:43;26.63;;;4.72;;
71484;SDS011;59300;52.074;4.758;2022-11-25T00:05:45;19.58;;;4.75;;
71484;SDS011;59300;52.074;4.758;2022-11-25T00:08:48;26.92;;;5.22;;
71484;SDS011;59300;52.074;4.758;2022-11-25T00:11:55;28.17;;;4.80;;
71484;SDS011;59300;52.074;4.758;2022-11-25T00:14:56;20.75;;;4.65;;
71484;SDS011;59300;52.074;4.758;2022-11-25T00:17:58;22.33;;;4.80;;
71484;SDS011;59300;52.074;4.758;2022-11-25T00:21:03;21.00;;;4.60;;
71484;SDS011;59300;52.074;4.758;2022-11-25T00:24:06;24.27;;;4.07;;
71484;SDS011;59300;52.074;4.758;2022-11-25T00:27:08;21.35;;;5.00;;
71484;SDS011;59300;52.074;4.758;2022-11-25T00:30:11;26.43;;;5.37;;
71484;SDS011;59300;52.074;4.758;2022-11-25T00:33:13;25.67;;;5.32;;
71484;SDS011;59300;52.074;4.758;2022-11-25T00:36:18;23.20;;;5.30;;
71484;SDS011;59300;52.074;4.758;2022-11-25T00:39:21;22.35;;;5.13;;
71484;SDS011;59300;52.074;4.758;2022-11-25T00:42:23;23.40;;;5.70;;
71484;SDS011;59300;52.074;4.758;2022-11-25T00:45:26;18.08;;;5.07;;
71484;SDS011;59300;52.074;4.758;2022-11-25T00:48:27;31.35;;;5.65;;
71484;SDS011;59300;52.074;4.758;2022-11-25T00:51:29;24.98;;;5.53;;
71484;SDS011;59300;52.074;4.758;2022-11-25T00:54:30;29.95;;;5.20;;
71484;SDS011;59300;52.074;4.758;2022-11-25T00:57:32;28.55;;;5.43;;
71484;SDS011;59300;52.074;4.758;2022-11-25T01:00:33;20.10;;;4.85;;
71484;SDS011;59300;52.074;4.758;2022-11-25T01:03:35;26.98;;;5.20;;
71484;SDS011;59300;52.074;4.758;2022-11-25T01:06:37;28.85;;;5.72;;
71484;SDS011;59300;52.074;4.758;2022-11-25T01:09:39;25.33;;;6.85;;
71484;SDS011;59300;52.074;4.758;2022-11-25T01:12:41;27.85;;;6.40;;
71484;SDS011;59300;52.074;4.758;2022-11-25T01:15:42;27.98;;;7.28;;
71484;SDS011;59300;52.074;4.758;2022-11-25T01:18:44;33.05;;;7.28;;
71484;SDS011;59300;52.074;4.758;2022-11-25T01:21:45;20.95;;;6.50;;
71484;SDS011;59300;52.074;4.758;2022-11-25T01:24:47;27.63;;;8.43;;
71484;SDS011;59300;52.074;4.758;2022-11-25T01:27:49;28.92;;;8.57;;
71484;SDS011;59300;52.074;4.758;2022-11-25T01:30:57;32.85;;;8.15;;
71484;SDS011;59300;52.074;4.758;2022-11-25T01:34:01;28.60;;;8.90;;
71484;SDS011;59300;52.074;4.758;2022-11-25T01:37:05;29.67;;;9.45;;
71484;SDS011;59300;52.074;4.758;2022-11-25T01:40:07;27.98;;;8.50;;
71484;SDS011;59300;52.074;4.758;2022-11-25T01:43:12;27.52;;;8.50;;
71484;SDS011;59300;52.074;4.758;2022-11-25T01:53:02;32.08;;;9.25;;
71484;SDS011;59300;52.074;4.758;2022-11-25T01:56:07;26.98;;;8.73;;
71484;SDS011;59300;52.074;4.758;2022-11-25T01:59:08;34.40;;;9.23;;
71484;SDS011;59300;52.074;4.758;2022-11-25T02:02:10;33.13;;;9.30;;
71484;SDS011;59300;52.074;4.758;2022-11-25T02:05:13;26.50;;;8.70;;
71484;SDS011;59300;52.074;4.758;2022-11-25T02:08:18;29.10;;;9.13;;
71484;SDS011;59300;52.074;4.758;2022-11-25T02:11:20;18.08;;;7.22;;
71484;SDS011;59300;52.074;4.758;2022-11-25T02:14:24;22.85;;;7.53;;
71484;SDS011;59300;52.074;4.758;2022-11-25T02:17:26;19.23;;;7.07;;
71484;SDS011;59300;52.074;4.758;2022-11-25T02:20:28;22.05;;;7.13;;
71484;SDS011;59300;52.074;4.758;2022-11-25T02:23:39;37.53;;;7.65;;
71484;SDS011;59300;52.074;4.758;2022-11-25T02:26:53;32.17;;;6.88;;
71484;SDS011;59300;52.074;4.758;2022-11-25T02:29:55;30.50;;;6.93;;
71484;SDS011;59300;52.074;4.758;2022-11-25T02:32:57;21.02;;;5.97;;
71484;SDS011;59300;52.074;4.758;2022-11-25T02:36:05;24.48;;;5.75;;
71484;SDS011;59300;52.074;4.758;2022-11-25T02:39:13;20.20;;;5.53;;
71484;SDS011;59300;52.074;4.758;2022-11-25T02:42:15;26.35;;;5.72;;
71484;SDS011;59300;52.074;4.758;2022-11-25T02:45:20;28.67;;;6.38;;
71484;SDS011;59300;52.074;4.758;2022-11-25T02:48:27;22.95;;;5.15;;
71484;SDS011;59300;52.074;4.758;2022-11-25T02:51:51;22.23;;;5.20;;
71484;SDS011;59300;52.074;4.758;2022-11-25T02:54:53;20.35;;;5.35;;
71484;SDS011;59300;52.074;4.758;2022-11-25T02:57:54;19.60;;;4.63;;
71484;SDS011;59300;52.074;4.758;2022-11-25T03:00:56;25.15;;;3.85;;
71484;SDS011;59300;52.074;4.758;2022-11-25T03:03:58;15.50;;;4.00;;
71484;SDS011;59300;52.074;4.758;2022-11-25T03:07:00;19.63;;;3.97;;
71484;SDS011;59300;52.074;4.758;2022-11-25T03:10:02;18.13;;;4.03;;
71484;SDS011;59300;52.074;4.758;2022-11-25T03:16:13;15.48;;;3.90;;
71484;SDS011;59300;52.074;4.758;2022-11-25T03:19:14;14.18;;;3.13;;
71484;SDS011;59300;52.074;4.758;2022-11-25T03:22:16;15.30;;;3.53;;
71484;SDS011;59300;52.074;4.758;2022-11-25T03:25:17;18.50;;;3.88;;
71484;SDS011;59300;52.074;4.758;2022-11-25T03:28:22;15.57;;;3.70;;
71484;SDS011;59300;52.074;4.758;2022-11-25T03:31:24;13.80;;;3.83;;
71484;SDS011;59300;52.074;4.758;2022-11-25T03:34:26;14.65;;;4.18;;
71484;SDS011;59300;52.074;4.758;2022-11-25T03:37:27;17.58;;;3.95;;
71484;SDS011;59300;52.074;4.758;2022-11-25T03:40:29;15.25;;;3.63;;
71484;SDS011;59300;52.074;4.758;2022-11-25T03:43:30;11.52;;;3.40;;
71484;SDS011;59300;52.074;4.758;2022-11-25T03:46:32;10.70;;;2.92;;
71484;SDS011;59300;52.074;4.758;2022-11-25T03:49:37;10.77;;;3.38;;
71484;SDS011;59300;52.074;4.758;2022-11-25T03:52:38;12.57;;;3.03;;
71484;SDS011;59300;52.074;4.758;2022-11-25T03:55:42;15.95;;;3.17;;
71484;SDS011;59300;52.074;4.758;2022-11-25T03:58:44;9.55;;;3.03;;
71484;SDS011;59300;52.074;4.758;2022-11-25T04:01:47;8.38;;;2.85;;
71484;SDS011;59300;52.074;4.758;2022-11-25T04:04:49;8.30;;;2.78;;
71484;SDS011;59300;52.074;4.758;2022-11-25T04:07:51;12.75;;;2.65;;
71484;SDS011;59300;52.074;4.758;2022-11-25T04:10:58;8.35;;;2.08;;
71484;SDS011;59300;52.074;4.758;2022-11-25T04:14:03;6.65;;;2.63;;
71484;SDS011;59300;52.074;4.758;2022-11-25T04:17:05;8.48;;;2.25;;
71484;SDS011;59300;52.074;4.758;2022-11-25T04:20:10;9.43;;;1.80;;
71484;SDS011;59300;52.074;4.758;2022-11-25T04:23:15;8.00;;;1.75;;
71484;SDS011;59300;52.074;4.758;2022-11-25T04:26:28;4.47;;;1.75;;
71484;SDS011;59300;52.074;4.758;2022-11-25T04:29:30;5.65;;;1.60;;
71484;SDS011;59300;52.074;4.758;2022-11-25T04:32:35;8.50;;;2.55;;
71484;SDS011;59300;52.074;4.758;2022-11-25T04:35:39;13.70;;;2.83;;
71484;SDS011;59300;52.074;4.758;2022-11-25T04:38:42;9.00;;;2.45;;
71484;SDS011;59300;52.074;4.758;2022-11-25T04:41:44;14.32;;;3.15;;
71484;SDS011;59300;52.074;4.758;2022-11-25T04:44:47;14.80;;;4.10;;
71484;SDS011;59300;52.074;4.758;2022-11-25T04:48:09;11.77;;;3.72;;
71484;SDS011;59300;52.074;4.758;2022-11-25T04:51:10;11.50;;;3.22;;
71484;SDS011;59300;52.074;4.758;2022-11-25T04:54:12;14.23;;;3.65;;
71484;SDS011;59300;52.074;4.758;2022-11-25T04:57:18;13.07;;;3.58;;
71484;SDS011;59300;52.074;4.758;2022-11-25T05:00:21;13.20;;;4.20;;
71484;SDS011;59300;52.074;4.758;2022-11-25T05:03:22;11.15;;;3.72;;
71484;SDS011;59300;52.074;4.758;2022-11-25T05:06:24;9.70;;;3.80;;
71484;SDS011;59300;52.074;4.758;2022-11-25T05:09:26;11.60;;;3.40;;
71484;SDS011;59300;52.074;4.758;2022-11-25T05:12:47;13.75;;;4.78;;
71484;SDS011;59300;52.074;4.758;2022-11-25T05:15:51;13.10;;;4.10;;
71484;SDS011;59300;52.074;4.758;2022-11-25T05:18:56;13.45;;;4.22;;
71484;SDS011;59300;52.074;4.758;2022-11-25T05:22:00;7.43;;;4.03;;
71484;SDS011;59300;52.074;4.758;2022-11-25T05:25:02;15.38;;;4.35;;
71484;SDS011;59300;52.074;4.758;2022-11-25T05:28:04;13.75;;;4.63;;
71484;SDS011;59300;52.074;4.758;2022-11-25T05:31:24;10.77;;;4.20;;
71484;SDS011;59300;52.074;4.758;2022-11-25T05:34:27;9.38;;;4.03;;
71484;SDS011;59300;52.074;4.758;2022-11-25T05:37:29;11.45;;;4.03;;
71484;SDS011;59300;52.074;4.758;2022-11-25T05:40:37;10.23;;;4.88;;
71484;SDS011;59300;52.074;4.758;2022-11-25T05:43:44;12.48;;;4.63;;
71484;SDS011;59300;52.074;4.758;2022-11-25T05:46:46;13.60;;;4.35;;
71484;SDS011;59300;52.074;4.758;2022-11-25T05:49:47;9.15;;;4.13;;
71484;SDS011;59300;52.074;4.758;2022-11-25T05:52:49;17.85;;;4.03;;
71484;SDS011;59300;52.074;4.758;2022-11-25T05:55:55;11.90;;;4.45;;
71484;SDS011;59300;52.074;4.758;2022-11-25T05:59:21;12.02;;;3.60;;
71484;SDS011;59300;52.074;4.758;2022-11-25T06:02:37;9.38;;;3.50;;
71484;SDS011;59300;52.074;4.758;2022-11-25T06:05:39;15.63;;;4.10;;
71484;SDS011;59300;52.074;4.758;2022-11-25T06:08:41;14.48;;;3.60;;
71484;SDS011;59300;52.074;4.758;2022-11-25T06:11:44;9.73;;;3.75;;
71484;SDS011;59300;52.074;4.758;2022-11-25T06:14:45;15.45;;;3.95;;
71484;SDS011;59300;52.074;4.758;2022-11-25T06:17:47;14.90;;;3.53;;
71484;SDS011;59300;52.074;4.758;2022-11-25T06:20:57;21.25;;;4.45;;
71484;SDS011;59300;52.074;4.758;2022-11-25T06:23:59;14.80;;;3.72;;
71484;SDS011;59300;52.074;4.758;2022-11-25T06:27:00;11.35;;;3.90;;
71484;SDS011;59300;52.074;4.758;2022-11-25T06:30:02;12.77;;;3.95;;
71484;SDS011;59300;52.074;4.758;2022-11-25T06:33:04;12.93;;;3.88;;
71484;SDS011;59300;52.074;4.758;2022-11-25T06:36:07;13.98;;;4.35;;
71484;SDS011;59300;52.074;4.758;2022-11-25T06:39:10;15.40;;;4.05;;
71484;SDS011;59300;52.074;4.758;2022-11-25T06:42:11;16.05;;;4.72;;
71484;SDS011;59300;52.074;4.758;2022-11-25T06:45:13;17.27;;;4.45;;
71484;SDS011;59300;52.074;4.758;2022-11-25T06:48:14;24.50;;;5.43;;
71484;SDS011;59300;52.074;4.758;2022-11-25T06:51:17;21.90;;;5.65;;
71484;SDS011;59300;52.074;4.758;2022-11-25T06:54:19;15.57;;;4.82;;
71484;SDS011;59300;52.074;4.758;2022-11-25T06:57:20;16.48;;;5.15;;
71484;SDS011;59300;52.074;4.758;2022-11-25T07:00:21;16.48;;;4.78;;
71484;SDS011;59300;52.074;4.758;2022-11-25T07:03:23;19.73;;;5.18;;
71484;SDS011;59300;52.074;4.758;2022-11-25T07:06:25;30.30;;;5.45;;
71484;SDS011;59300;52.074;4.758;2022-11-25T07:09:27;16.17;;;4.72;;
71484;SDS011;59300;52.074;4.758;2022-11-25T07:12:29;27.25;;;5.93;;
71484;SDS011;59300;52.074;4.758;2022-11-25T07:15:32;10.27;;;4.10;;
71484;SDS011;59300;52.074;4.758;2022-11-25T07:18:35;13.48;;;4.63;;
71484;SDS011;59300;52.074;4.758;2022-11-25T07:21:37;16.73;;;4.55;;
71484;SDS011;59300;52.074;4.758;2022-11-25T07:24:39;16.50;;;4.45;;
71484;SDS011;59300;52.074;4.758;2022-11-25T07:27:40;23.85;;;4.75;;
71484;SDS011;59300;52.074;4.758;2022-11-25T07:30:42;13.63;;;4.55;;
71484;SDS011;59300;52.074;4.758;2022-11-25T07:34:10;14.25;;;4.90;;
71484;SDS011;59300;52.074;4.758;2022-11-25T07:37:14;13.20;;;4.32;;
71484;SDS011;59300;52.074;4.758;2022-11-25T07:40:15;14.45;;;4.63;;
71484;SDS011;59300;52.074;4.758;2022-11-25T07:43:17;12.57;;;4.03;;
71484;SDS011;59300;52.074;4.758;2022-11-25T07:49:30;12.07;;;3.85;;
71484;SDS011;59300;52.074;4.758;2022-11-25T07:52:32;19.67;;;4.07;;
71484;SDS011;59300;52.074;4.758;2022-11-25T07:55:33;14.65;;;4.13;;
71484;SDS011;59300;52.074;4.758;2022-11-25T07:58:35;13.27;;;3.25;;
71484;SDS011;59300;52.074;4.758;2022-11-25T08:01:43;11.45;;;3.55;;
71484;SDS011;59300;52.074;4.758;2022-11-25T08:04:44;13.90;;;3.72;;
71484;SDS011;59300;52.074;4.758;2022-11-25T08:07:46;7.97;;;3.30;;
71484;SDS011;59300;52.074;4.758;2022-11-25T08:10:47;10.18;;;3.17;;
71484;SDS011;59300;52.074;4.758;2022-11-25T08:13:49;8.43;;;3.15;;
71484;SDS011;59300;52.074;4.758;2022-11-25T08:16:51;13.38;;;3.60;;
71484;SDS011;59300;52.074;4.758;2022-11-25T08:19:52;14.68;;;3.53;;
71484;SDS011;59300;52.074;4.758;2022-11-25T08:22:54;10.00;;;2.95;;
71484;SDS011;59300;52.074;4.758;2022-11-25T08:25:55;9.45;;;2.90;;
71484;SDS011;59300;52.074;4.758;2022-11-25T08:28:57;9.98;;;2.65;;
71484;SDS011;59300;52.074;4.758;2022-11-25T08:31:59;10.43;;;2.50;;
71484;SDS011;59300;52.074;4.758;2022-11-25T08:35:01;7.13;;;2.38;;
71484;SDS011;59300;52.074;4.758;2022-11-25T08:38:06;11.73;;;2.40;;
71484;SDS011;59300;52.074;4.758;2022-11-25T08:41:10;8.60;;;2.50;;
71484;SDS011;59300;52.074;4.758;2022-11-25T08:44:32;9.32;;;2.10;;
71484;SDS011;59300;52.074;4.758;2022-11-25T08:47:34;10.07;;;1.90;;
71484;SDS011;59300;52.074;4.758;2022-11-25T08:50:36;8.05;;;1.90;;
71484;SDS011;59300;52.074;4.758;2022-11-25T08:53:39;8.90;;;2.35;;
71484;SDS011;59300;52.074;4.758;2022-11-25T08:56:41;12.15;;;2.53;;
71484;SDS011;59300;52.074;4.758;2022-11-25T08:59:42;9.23;;;2.20;;
71484;SDS011;59300;52.074;4.758;2022-11-25T09:02:44;5.78;;;2.15;;
71484;SDS011;59300;52.074;4.758;2022-11-25T09:05:46;8.13;;;2.67;;
71484;SDS011;59300;52.074;4.758;2022-11-25T09:08:47;16.60;;;2.70;;
71484;SDS011;59300;52.074;4.758;2022-11-25T09:11:49;9.88;;;2.35;;
71484;SDS011;59300;52.074;4.758;2022-11-25T09:14:50;7.25;;;2.38;;
71484;SDS011;59300;52.074;4.758;2022-11-25T09:18:03;11.43;;;2.00;;
71484;SDS011;59300;52.074;4.758;2022-11-25T09:21:09;9.90;;;1.98;;
71484;SDS011;59300;52.074;4.758;2022-11-25T09:24:13;7.43;;;1.88;;
71484;SDS011;59300;52.074;4.758;2022-11-25T09:27:15;9.55;;;2.15;;
71484;SDS011;59300;52.074;4.758;2022-11-25T09:30:16;12.07;;;2.53;;
71484;SDS011;59300;52.074;4.758;2022-11-25T09:33:18;9.02;;;2.17;;
71484;SDS011;59300;52.074;4.758;2022-11-25T09:36:20;9.35;;;2.25;;
71484;SDS011;59300;52.074;4.758;2022-11-25T09:39:21;12.05;;;2.08;;
71484;SDS011;59300;52.074;4.758;2022-11-25T09:45:54;8.33;;;2.20;;
71484;SDS011;59300;52.074;4.758;2022-11-25T09:56:11;9.38;;;2.00;;
71484;SDS011;59300;52.074;4.758;2022-11-25T10:06:05;11.95;;;2.30;;
71484;SDS011;59300;52.074;4.758;2022-11-25T10:09:12;7.30;;;1.90;;
71484;SDS011;59300;52.074;4.758;2022-11-25T10:12:18;16.55;;;2.50;;
71484;SDS011;59300;52.074;4.758;2022-11-25T10:15:26;10.70;;;2.60;;
71484;SDS011;59300;52.074;4.758;2022-11-25T10:18:39;9.13;;;2.42;;
71484;SDS011;59300;52.074;4.758;2022-11-25T10:21:45;10.18;;;2.20;;
71484;SDS011;59300;52.074;4.758;2022-11-25T10:24:47;11.98;;;2.17;;
71484;SDS011;59300;52.074;4.758;2022-11-25T10:27:54;10.32;;;2.35;;
71484;SDS011;59300;52.074;4.758;2022-11-25T10:31:19;10.85;;;2.63;;
71484;SDS011;59300;52.074;4.758;2022-11-25T10:34:32;10.10;;;2.30;;
71484;SDS011;59300;52.074;4.758;2022-11-25T10:37:39;9.77;;;2.55;;
71484;SDS011;59300;52.074;4.758;2022-11-25T10:40:46;13.65;;;2.40;;
71484;SDS011;59300;52.074;4.758;2022-11-25T10:43:50;15.80;;;2.42;;
71484;SDS011;59300;52.074;4.758;2022-11-25T10:50:24;11.50;;;2.13;;
71484;SDS011;59300;52.074;4.758;2022-11-25T10:53:33;9.02;;;2.30;;
71484;SDS011;59300;52.074;4.758;2022-11-25T10:56:42;10.35;;;2.10;;
71484;SDS011;59300;52.074;4.758;2022-11-25T10:59:53;11.18;;;2.05;;
71484;SDS011;59300;52.074;4.758;2022-11-25T11:02:57;17.38;;;2.60;;
71484;SDS011;59300;52.074;4.758;2022-11-25T11:06:00;13.88;;;2.53;;
71484;SDS011;59300;52.074;4.758;2022-11-25T11:09:02;11.15;;;2.83;;
71484;SDS011;59300;52.074;4.758;2022-11-25T11:12:18;19.55;;;2.65;;
71484;SDS011;59300;52.074;4.758;2022-11-25T11:15:30;14.27;;;2.88;;
71484;SDS011;59300;52.074;4.758;2022-11-25T11:21:37;15.90;;;2.30;;
71484;SDS011;59300;52.074;4.758;2022-11-25T11:24:41;9.30;;;2.10;;
71484;SDS011;59300;52.074;4.758;2022-11-25T11:27:43;14.10;;;2.28;;
71484;SDS011;59300;52.074;4.758;2022-11-25T11:30:55;10.48;;;2.13;;
71484;SDS011;59300;52.074;4.758;2022-11-25T11:34:15;13.00;;;2.55;;
71484;SDS011;59300;52.074;4.758;2022-11-25T11:40:48;13.10;;;2.92;;
71484;SDS011;59300;52.074;4.758;2022-11-25T11:44:34;12.02;;;2.22;;
71484;SDS011;59300;52.074;4.758;2022-11-25T11:50:52;11.73;;;2.00;;
71484;SDS011;59300;52.074;4.758;2022-11-25T11:54:07;13.52;;;2.00;;
71484;SDS011;59300;52.074;4.758;2022-11-25T11:57:22;13.73;;;1.85;;
71484;SDS011;59300;52.074;4.758;2022-11-25T12:00:37;11.65;;;1.98;;
71484;SDS011;59300;52.074;4.758;2022-11-25T12:04:25;12.85;;;2.00;;
71484;SDS011;59300;52.074;4.758;2022-11-25T12:07:43;16.10;;;2.03;;
71484;SDS011;59300;52.074;4.758;2022-11-25T12:10:53;11.73;;;1.95;;
71484;SDS011;59300;52.074;4.758;2022-11-25T12:14:28;8.75;;;2.10;;
71484;SDS011;59300;52.074;4.758;2022-11-25T12:17:43;13.18;;;2.25;;
71484;SDS011;59300;52.074;4.758;2022-11-25T12:20:56;17.05;;;2.75;;
71484;SDS011;59300;52.074;4.758;2022-11-25T12:24:10;11.98;;;2.75;;
71484;SDS011;59300;52.074;4.758;2022-11-25T12:27:26;16.50;;;2.55;;
71484;SDS011;59300;52.074;4.758;2022-11-25T12:34:39;10.98;;;2.28;;
71484;SDS011;59300;52.074;4.758;2022-11-25T12:38:04;13.95;;;2.45;;
71484;SDS011;59300;52.074;4.758;2022-11-25T12:48:00;17.27;;;2.65;;
71484;SDS011;59300;52.074;4.758;2022-11-25T12:51:09;13.95;;;2.47;;
71484;SDS011;59300;52.074;4.758;2022-11-25T12:54:24;13.18;;;2.38;;
71484;SDS011;59300;52.074;4.758;2022-11-25T13:18:42;19.92;;;2.53;;
71484;SDS011;59300;52.074;4.758;2022-11-25T13:24:58;13.17;;;2.20;;
71484;SDS011;59300;52.074;4.758;2022-11-25T13:28:01;18.20;;;2.90;;
71484;SDS011;59300;52.074;4.758;2022-11-25T13:31:18;10.23;;;2.08;;
71484;SDS011;59300;52.074;4.758;2022-11-25T13:37:33;20.25;;;2.53;;
71484;SDS011;59300;52.074;4.758;2022-11-25T13:40:37;16.33;;;2.15;;
71484;SDS011;59300;52.074;4.758;2022-11-25T13:43:56;14.95;;;2.72;;
71484;SDS011;59300;52.074;4.758;2022-11-25T13:47:21;15.45;;;2.28;;
71484;SDS011;59300;52.074;4.758;2022-11-25T13:50:23;13.23;;;2.53;;
71484;SDS011;59300;52.074;4.758;2022-11-25T13:54:02;21.42;;;2.92;;
71484;SDS011;59300;52.074;4.758;2022-11-25T14:16:48;19.23;;;3.15;;
71484;SDS011;59300;52.074;4.758;2022-11-25T14:23:42;18.33;;;7.05;;
71484;SDS011;59300;52.074;4.758;2022-11-25T14:26:51;27.92;;;11.80;;
71484;SDS011;59300;52.074;4.758;2022-11-25T14:30:03;21.00;;;6.90;;
71484;SDS011;59300;52.074;4.758;2022-11-25T14:33:10;16.42;;;3.10;;
71484;SDS011;59300;52.074;4.758;2022-11-25T14:36:19;11.63;;;2.42;;
71484;SDS011;59300;52.074;4.758;2022-11-25T14:39:43;23.58;;;3.75;;
71484;SDS011;59300;52.074;4.758;2022-11-25T14:42:56;16.38;;;3.28;;
71484;SDS011;59300;52.074;4.758;2022-11-25T14:49:18;13.65;;;4.93;;
71484;SDS011;59300;52.074;4.758;2022-11-25T14:52:44;15.10;;;4.50;;
71484;SDS011;59300;52.074;4.758;2022-11-25T14:55:47;11.88;;;4.43;;
71484;SDS011;59300;52.074;4.758;2022-11-25T14:58:58;15.07;;;4.97;;
71484;SDS011;59300;52.074;4.758;2022-11-25T15:02:00;24.20;;;4.90;;
71484;SDS011;59300;52.074;4.758;2022-11-25T15:08:16;17.38;;;4.75;;
71484;SDS011;59300;52.074;4.758;2022-11-25T15:11:22;21.00;;;7.20;;
71484;SDS011;59300;52.074;4.758;2022-11-25T15:14:29;16.23;;;4.78;;
71484;SDS011;59300;52.074;4.758;2022-11-25T15:17:36;20.70;;;8.07;;
71484;SDS011;59300;52.074;4.758;2022-11-25T15:20:55;26.65;;;5.18;;
71484;SDS011;59300;52.074;4.758;2022-11-25T15:24:02;15.27;;;5.40;;
71484;SDS011;59300;52.074;4.758;2022-11-25T15:27:22;20.57;;;5.30;;
71484;SDS011;59300;52.074;4.758;2022-11-25T15:30:27;15.65;;;3.88;;
71484;SDS011;59300;52.074;4.758;2022-11-25T15:33:32;21.80;;;5.00;;
71484;SDS011;59300;52.074;4.758;2022-11-25T15:36:34;15.30;;;5.47;;
71484;SDS011;59300;52.074;4.758;2022-11-25T15:39:36;17.67;;;3.70;;
71484;SDS011;59300;52.074;4.758;2022-11-25T15:42:48;18.83;;;4.72;;
71484;SDS011;59300;52.074;4.758;2022-11-25T15:45:53;15.57;;;3.40;;
71484;SDS011;59300;52.074;4.758;2022-11-25T15:49:00;15.45;;;3.50;;
71484;SDS011;59300;52.074;4.758;2022-11-25T15:52:15;8.82;;;3.00;;
71484;SDS011;59300;52.074;4.758;2022-11-25T15:58:34;22.05;;;6.38;;
71484;SDS011;59300;52.074;4.758;2022-11-25T16:01:39;19.85;;;5.60;;
71484;SDS011;59300;52.074;4.758;2022-11-25T16:04:41;21.48;;;4.93;;
71484;SDS011;59300;52.074;4.758;2022-11-25T16:10:56;19.73;;;4.85;;
71484;SDS011;59300;52.074;4.758;2022-11-25T16:17:30;17.23;;;5.70;;
71484;SDS011;59300;52.074;4.758;2022-11-25T16:20:37;18.20;;;4.85;;
71484;SDS011;59300;52.074;4.758;2022-11-25T16:23:40;25.67;;;4.18;;
71484;SDS011;59300;52.074;4.758;2022-11-25T16:26:48;16.63;;;4.75;;
71484;SDS011;59300;52.074;4.758;2022-11-25T16:33:22;20.73;;;5.22;;
71484;SDS011;59300;52.074;4.758;2022-11-25T16:36:24;24.45;;;5.07;;
71484;SDS011;59300;52.074;4.758;2022-11-25T16:39:25;28.52;;;4.97;;
71484;SDS011;59300;52.074;4.758;2022-11-25T16:42:27;27.50;;;5.00;;
71484;SDS011;59300;52.074;4.758;2022-11-25T16:45:29;17.38;;;4.40;;
71484;SDS011;59300;52.074;4.758;2022-11-25T16:48:30;20.27;;;4.53;;
71484;SDS011;59300;52.074;4.758;2022-11-25T16:51:32;15.38;;;3.72;;
71484;SDS011;59300;52.074;4.758;2022-11-25T16:54:33;20.50;;;4.25;;
71484;SDS011;59300;52.074;4.758;2022-11-25T16:57:35;20.30;;;4.00;;
71484;SDS011;59300;52.074;4.758;2022-11-25T17:00:38;27.58;;;5.40;;
71484;SDS011;59300;52.074;4.758;2022-11-25T17:03:42;36.58;;;7.30;;
71484;SDS011;59300;52.074;4.758;2022-11-25T17:06:45;28.50;;;6.97;;
71484;SDS011;59300;52.074;4.758;2022-11-25T17:10:06;25.23;;;5.15;;
71484;SDS011;59300;52.074;4.758;2022-11-25T17:13:20;20.83;;;6.05;;
71484;SDS011;59300;52.074;4.758;2022-11-25T17:16:24;20.23;;;6.18;;
71484;SDS011;59300;52.074;4.758;2022-11-25T17:19:28;24.00;;;5.05;;
71484;SDS011;59300;52.074;4.758;2022-11-25T17:22:30;22.08;;;4.85;;
71484;SDS011;59300;52.074;4.758;2022-11-25T17:25:39;15.45;;;5.13;;
71484;SDS011;59300;52.074;4.758;2022-11-25T17:28:46;22.80;;;6.35;;
71484;SDS011;59300;52.074;4.758;2022-11-25T17:31:57;28.35;;;7.50;;
71484;SDS011;59300;52.074;4.758;2022-11-25T17:35:00;15.40;;;4.57;;
71484;SDS011;59300;52.074;4.758;2022-11-25T17:38:01;22.02;;;7.03;;
71484;SDS011;59300;52.074;4.758;2022-11-25T17:41:15;25.50;;;5.43;;
71484;SDS011;59300;52.074;4.758;2022-11-25T17:44:38;15.75;;;6.00;;
71484;SDS011;59300;52.074;4.758;2022-11-25T17:47:40;28.60;;;6.85;;
71484;SDS011;59300;52.074;4.758;2022-11-25T17:50:48;19.75;;;5.85;;
71484;SDS011;59300;52.074;4.758;2022-11-25T17:53:50;22.95;;;6.65;;
71484;SDS011;59300;52.074;4.758;2022-11-25T17:56:51;20.75;;;6.00;;
71484;SDS011;59300;52.074;4.758;2022-11-25T17:59:53;21.98;;;5.82;;
71484;SDS011;59300;52.074;4.758;2022-11-25T18:03:05;21.20;;;5.15;;
71484;SDS011;59300;52.074;4.758;2022-11-25T18:06:11;26.33;;;6.05;;
71484;SDS011;59300;52.074;4.758;2022-11-25T18:09:17;27.15;;;7.47;;
71484;SDS011;59300;52.074;4.758;2022-11-25T18:12:25;30.08;;;9.00;;
71484;SDS011;59300;52.074;4.758;2022-11-25T18:15:32;28.67;;;8.82;;
71484;SDS011;59300;52.074;4.758;2022-11-25T18:18:39;25.98;;;7.82;;
71484;SDS011;59300;52.074;4.758;2022-11-25T18:21:41;23.15;;;9.48;;
71484;SDS011;59300;52.074;4.758;2022-11-25T18:24:43;44.05;;;10.25;;
71484;SDS011;59300;52.074;4.758;2022-11-25T18:27:48;23.30;;;8.88;;
71484;SDS011;59300;52.074;4.758;2022-11-25T18:30:51;34.45;;;9.23;;
71484;SDS011;59300;52.074;4.758;2022-11-25T18:36:56;30.00;;;8.40;;
71484;SDS011;59300;52.074;4.758;2022-11-25T18:39:58;29.73;;;8.43;;
71484;SDS011;59300;52.074;4.758;2022-11-25T18:43:00;24.60;;;8.23;;
71484;SDS011;59300;52.074;4.758;2022-11-25T18:46:04;31.42;;;7.78;;
71484;SDS011;59300;52.074;4.758;2022-11-25T18:49:12;25.92;;;7.82;;
71484;SDS011;59300;52.074;4.758;2022-11-25T18:52:14;30.17;;;8.88;;
71484;SDS011;59300;52.074;4.758;2022-11-25T18:55:17;40.08;;;11.07;;
71484;SDS011;59300;52.074;4.758;2022-11-25T18:58:21;34.47;;;10.00;;
71484;SDS011;59300;52.074;4.758;2022-11-25T19:01:25;24.60;;;8.63;;
71484;SDS011;59300;52.074;4.758;2022-11-25T19:04:27;21.48;;;7.65;;
71484;SDS011;59300;52.074;4.758;2022-11-25T19:07:29;28.48;;;8.25;;
71484;SDS011;59300;52.074;4.758;2022-11-25T19:10:30;25.58;;;6.45;;
71484;SDS011;59300;52.074;4.758;2022-11-25T19:13:36;26.73;;;6.55;;
71484;SDS011;59300;52.074;4.758;2022-11-25T19:16:38;30.83;;;11.35;;
71484;SDS011;59300;52.074;4.758;2022-11-25T19:19:41;22.35;;;7.40;;
71484;SDS011;59300;52.074;4.758;2022-11-25T19:22:42;28.00;;;6.07;;
71484;SDS011;59300;52.074;4.758;2022-11-25T19:25:44;25.33;;;5.65;;
71484;SDS011;59300;52.074;4.758;2022-11-25T19:28:46;26.30;;;5.55;;
71484;SDS011;59300;52.074;4.758;2022-11-25T19:31:51;25.83;;;6.18;;
71484;SDS011;59300;52.074;4.758;2022-11-25T19:34:56;32.80;;;8.05;;
71484;SDS011;59300;52.074;4.758;2022-11-25T19:38:00;38.38;;;11.80;;
71484;SDS011;59300;52.074;4.758;2022-11-25T19:41:01;31.92;;;11.07;;
71484;SDS011;59300;52.074;4.758;2022-11-25T19:44:03;26.65;;;9.98;;
71484;SDS011;59300;52.074;4.758;2022-11-25T19:47:04;36.53;;;11.23;;
71484;SDS011;59300;52.074;4.758;2022-11-25T19:50:24;23.83;;;10.70;;
71484;SDS011;59300;52.074;4.758;2022-11-25T19:53:27;37.72;;;11.93;;
71484;SDS011;59300;52.074;4.758;2022-11-25T19:56:34;29.63;;;10.25;;
71484;SDS011;59300;52.074;4.758;2022-11-25T19:59:35;40.97;;;9.75;;
71484;SDS011;59300;52.074;4.758;2022-11-25T20:02:37;28.35;;;8.73;;
71484;SDS011;59300;52.074;4.758;2022-11-25T20:05:39;25.98;;;9.57;;
71484;SDS011;59300;52.074;4.758;2022-11-25T20:08:41;27.45;;;8.98;;
71484;SDS011;59300;52.074;4.758;2022-11-25T20:11:43;26.02;;;10.65;;
71484;SDS011;59300;52.074;4.758;2022-11-25T20:14:44;32.38;;;9.90;;
71484;SDS011;59300;52.074;4.758;2022-11-25T20:17:46;30.75;;;11.15;;
71484;SDS011;59300;52.074;4.758;2022-11-25T20:21:00;32.10;;;12.10;;
71484;SDS011;59300;52.074;4.758;2022-11-25T20:24:05;32.53;;;9.80;;
71484;SDS011;59300;52.074;4.758;2022-11-25T20:27:14;37.03;;;11.18;;
71484;SDS011;59300;52.074;4.758;2022-11-25T20:33:25;35.83;;;10.93;;
71484;SDS011;59300;52.074;4.758;2022-11-25T20:36:27;29.08;;;10.13;;